sensor_id;sensor_type;location;lat;lon;timestamp;pressure;altitude;pressure_sealevel;temperature;humidity
48792;BME280;34587;48.816;9.420;2023-03-01T00:00:51;99610.75;;;-3.16;84.16
48792;BME280;34587;48.816;9.420;2023-03-01T00:03:17;99619.50;;;-3.27;84.28
48792;BME280;34587;48.816;9.420;2023-03-01T00:05:46;99619.50;;;-3.27;84.29
48792;BME280;34587;48.816;9.420;2023-03-01T00:08:11;99618.38;;;-3.16;83.69
48792;BME280;34587;48.816;9.420;2023-03-01T00:10:37;99612.47;;;-2.99;82.47
48792;BME280;34587;48.816;9.420;2023-03-01T00:13:02;99612.88;;;-3.07;82.10
48792;BME280;34587;48.816;9.420;2023-03-01T00:15:30;99610.75;;;-3.16;83.08
48792;BME280;34587;48.816;9.420;2023-03-01T00:17:55;99609.84;;;-3.18;83.27
48792;BME280;34587;48.816;9.420;2023-03-01T00:20:21;99614.03;;;-3.19;83.12
48792;BME280;34587;48.816;9.420;2023-03-01T00:22:46;99614.22;;;-2.98;82.68
48792;BME280;34587;48.816;9.420;2023-03-01T00:25:12;99620.59;;;-3.22;83.16
48792;BME280;34587;48.816;9.420;2023-03-01T00:27:37;99627.81;;;-3.14;82.67
48792;BME280;34587;48.816;9.420;2023-03-01T00:30:02;99617.09;;;-3.08;83.43
48792;BME280;34587;48.816;9.420;2023-03-01T00:32:28;99618.31;;;-3.00;81.73
48792;BME280;34587;48.816;9.420;2023-03-01T00:34:53;99616.13;;;-3.10;83.17
48792;BME280;34587;48.816;9.420;2023-03-01T00:37:21;99617.25;;;-3.21;83.22
48792;BME280;34587;48.816;9.420;2023-03-01T00:39:48;99614.28;;;-3.30;83.49
48792;BME280;34587;48.816;9.420;2023-03-01T00:42:13;99617.38;;;-3.02;82.65
48792;BME280;34587;48.816;9.420;2023-03-01T00:44:39;99607.53;;;-2.96;81.92
48792;BME280;34587;48.816;9.420;2023-03-01T00:47:04;99612.84;;;-3.25;82.73
48792;BME280;34587;48.816;9.420;2023-03-01T00:49:29;99613.00;;;-3.22;82.26
48792;BME280;34587;48.816;9.420;2023-03-01T00:51:55;99619.50;;;-3.27;84.45
48792;BME280;34587;48.816;9.420;2023-03-01T00:54:20;99610.81;;;-3.32;85.05
48792;BME280;34587;48.816;9.420;2023-03-01T00:56:45;99610.00;;;-3.31;85.85
48792;BME280;34587;48.816;9.420;2023-03-01T00:59:11;99607.88;;;-3.40;85.59
48792;BME280;34587;48.816;9.420;2023-03-01T05:17:34;99420.72;;;-0.73;75.05
48792;BME280;34587;48.816;9.420;2023-03-01T05:19:59;99424.16;;;-0.72;77.16
48792;BME280;34587;48.816;9.420;2023-03-01T05:22:25;99417.75;;;-0.63;78.36
48792;BME280;34587;48.816;9.420;2023-03-01T05:24:50;99422.41;;;-0.73;77.63
48792;BME280;34587;48.816;9.420;2023-03-01T05:27:16;99417.31;;;-0.73;77.12
48792;BME280;34587;48.816;9.420;2023-03-01T05:29:41;99418.66;;;-0.37;75.33
48792;BME280;34587;48.816;9.420;2023-03-01T05:32:06;99414.75;;;-0.51;78.17
48792;BME280;34587;48.816;9.420;2023-03-01T05:34:34;99412.78;;;-0.58;79.07
48792;BME280;34587;48.816;9.420;2023-03-01T05:37:00;99418.00;;;-0.55;79.22
48792;BME280;34587;48.816;9.420;2023-03-01T05:39:27;99419.72;;;-0.54;79.67
48792;BME280;34587;48.816;9.420;2023-03-01T05:41:54;99425.59;;;-0.57;78.50
48792;BME280;34587;48.816;9.420;2023-03-01T05:44:20;99425.97;;;-0.46;77.09
48792;BME280;34587;48.816;9.420;2023-03-01T05:46:46;99428.38;;;-0.49;77.75
48792;BME280;34587;48.816;9.420;2023-03-01T05:49:12;99416.41;;;-0.53;79.22
48792;BME280;34587;48.816;9.420;2023-03-01T05:51:39;99423.22;;;-0.52;78.84
48792;BME280;34587;48.816;9.420;2023-03-01T05:54:04;99416.28;;;-0.56;78.32
48792;BME280;34587;48.816;9.420;2023-03-01T05:56:32;99414.53;;;-0.57;79.55
48792;BME280;34587;48.816;9.420;2023-03-01T05:58:57;99406.78;;;-0.60;80.00
48792;BME280;34587;48.816;9.420;2023-03-01T06:01:23;99400.53;;;-0.68;78.95
48792;BME280;34587;48.816;9.420;2023-03-01T06:03:48;99404.13;;;-0.63;78.38
48792;BME280;34587;48.816;9.420;2023-03-01T06:06:13;99390.63;;;-0.62;78.48
48792;BME280;34587;48.816;9.420;2023-03-01T06:08:38;99393.63;;;-0.72;78.40
48792;BME280;34587;48.816;9.420;2023-03-01T06:11:04;99398.78;;;-0.71;77.37
48792;BME280;34587;48.816;9.420;2023-03-01T06:13:30;99400.44;;;-0.71;77.07
48792;BME280;34587;48.816;9.420;2023-03-01T06:15:55;99399.47;;;-0.75;77.29
48792;BME280;34587;48.816;9.420;2023-03-01T06:18:20;99408.44;;;-0.85;77.15
48792;BME280;34587;48.816;9.420;2023-03-01T06:20:53;99418.72;;;-0.82;77.48
48792;BME280;34587;48.816;9.420;2023-03-01T06:23:18;99412.59;;;-0.87;77.80
48792;BME280;34587;48.816;9.420;2023-03-01T06:25:44;99416.19;;;-0.82;78.17
48792;BME280;34587;48.816;9.420;2023-03-01T06:28:09;99417.22;;;-0.76;78.75
48792;BME280;34587;48.816;9.420;2023-03-01T06:30:34;99410.53;;;-0.73;78.50
48792;BME280;34587;48.816;9.420;2023-03-01T06:33:00;99418.25;;;-0.71;78.17
48792;BME280;34587;48.816;9.420;2023-03-01T06:35:29;99412.53;;;-0.66;77.97
48792;BME280;34587;48.816;9.420;2023-03-01T06:37:55;99403.91;;;-0.69;77.83
48792;BME280;34587;48.816;9.420;2023-03-01T06:40:20;99411.06;;;-0.59;77.65
48792;BME280;34587;48.816;9.420;2023-03-01T06:42:48;99411.19;;;-0.08;72.58
48792;BME280;34587;48.816;9.420;2023-03-01T06:45:18;99411.19;;;-0.08;72.12
48792;BME280;34587;48.816;9.420;2023-03-01T06:47:44;99402.22;;;0.54;68.73
48792;BME280;34587;48.816;9.420;2023-03-01T06:50:10;99404.75;;;0.29;70.21
48792;BME280;34587;48.816;9.420;2023-03-01T06:52:36;99397.53;;;0.41;69.68
48792;BME280;34587;48.816;9.420;2023-03-01T06:55:02;99402.50;;;0.38;68.92
48792;BME280;34587;48.816;9.420;2023-03-01T06:57:27;99393.97;;;0.36;69.83
48792;BME280;34587;48.816;9.420;2023-03-01T06:59:53;99405.31;;;0.72;68.67
48792;BME280;34587;48.816;9.420;2023-03-01T07:02:18;99409.56;;;0.99;66.57
48792;BME280;34587;48.816;9.420;2023-03-01T07:04:44;99402.34;;;0.86;66.14
48792;BME280;34587;48.816;9.420;2023-03-01T07:07:09;99402.59;;;0.66;66.61
48792;BME280;34587;48.816;9.420;2023-03-01T07:09:35;99398.97;;;0.60;66.56
48792;BME280;34587;48.816;9.420;2023-03-01T07:12:00;99401.50;;;0.58;66.81
48792;BME280;34587;48.816;9.420;2023-03-01T07:14:26;99402.22;;;0.29;67.39
48792;BME280;34587;48.816;9.420;2023-03-01T07:16:52;99403.84;;;0.27;68.16
48792;BME280;34587;48.816;9.420;2023-03-01T07:19:18;99397.41;;;0.11;68.13
48792;BME280;34587;48.816;9.420;2023-03-01T07:21:43;99400.41;;;0.24;68.11
48792;BME280;34587;48.816;9.420;2023-03-01T07:24:09;99392.25;;;0.35;67.70
48792;BME280;34587;48.816;9.420;2023-03-01T07:26:34;99391.56;;;0.40;67.39
48792;BME280;34587;48.816;9.420;2023-03-01T07:29:00;99389.16;;;0.45;67.23
48792;BME280;34587;48.816;9.420;2023-03-01T07:31:26;99389.47;;;0.54;66.34
48792;BME280;34587;48.816;9.420;2023-03-01T07:33:53;99384.34;;;0.81;66.72
48792;BME280;34587;48.816;9.420;2023-03-01T07:36:19;99379.91;;;0.75;66.35
48792;BME280;34587;48.816;9.420;2023-03-01T07:38:44;99384.91;;;0.99;65.51
48792;BME280;34587;48.816;9.420;2023-03-01T07:41:09;99385.22;;;1.10;64.46
48792;BME280;34587;48.816;9.420;2023-03-01T07:43:35;99374.44;;;1.20;64.90
48792;BME280;34587;48.816;9.420;2023-03-01T07:46:01;99370.56;;;1.33;64.55
48792;BME280;34587;48.816;9.420;2023-03-01T07:48:27;99367.56;;;1.48;64.40
48792;BME280;34587;48.816;9.420;2023-03-01T07:50:52;99369.50;;;1.55;63.58
48792;BME280;34587;48.816;9.420;2023-03-01T07:53:17;99360.44;;;1.68;62.63
48792;BME280;34587;48.816;9.420;2023-03-01T07:55:43;99366.59;;;1.43;62.36
48792;BME280;34587;48.816;9.420;2023-03-01T07:58:08;99361.84;;;1.55;62.49
48792;BME280;34587;48.816;9.420;2023-03-01T08:00:33;99352.03;;;1.70;62.23
48792;BME280;34587;48.816;9.420;2023-03-01T08:02:59;99357.78;;;1.63;62.95
48792;BME280;34587;48.816;9.420;2023-03-01T08:05:26;99350.34;;;1.72;62.52
48792;BME280;34587;48.816;9.420;2023-03-01T08:07:51;99347.78;;;2.04;60.90
48792;BME280;34587;48.816;9.420;2023-03-01T08:10:16;99342.03;;;1.79;60.72
48792;BME280;34587;48.816;9.420;2023-03-01T08:12:42;99347.59;;;1.98;61.17
48792;BME280;34587;48.816;9.420;2023-03-01T08:15:08;99332.22;;;1.95;60.39
48792;BME280;34587;48.816;9.420;2023-03-01T08:17:33;99342.44;;;1.95;59.92
48792;BME280;34587;48.816;9.420;2023-03-01T08:19:58;99342.00;;;2.85;59.20
48792;BME280;34587;48.816;9.420;2023-03-01T08:22:24;99344.66;;;2.90;58.18
48792;BME280;34587;48.816;9.420;2023-03-01T08:24:49;99332.19;;;4.46;53.23
48792;BME280;34587;48.816;9.420;2023-03-01T08:27:16;99315.34;;;7.78;45.60
48792;BME280;34587;48.816;9.420;2023-03-01T08:29:41;99328.28;;;7.90;43.39
48792;BME280;34587;48.816;9.420;2023-03-01T08:32:06;99324.88;;;8.71;41.02
48792;BME280;34587;48.816;9.420;2023-03-01T08:34:32;99302.00;;;11.58;37.77
48792;BME280;34587;48.816;9.420;2023-03-01T08:37:00;99310.13;;;12.50;33.85
48792;BME280;34587;48.816;9.420;2023-03-01T08:39:25;99305.31;;;14.39;31.22
48792;BME280;34587;48.816;9.420;2023-03-01T08:41:51;99306.06;;;14.08;30.79
48792;BME280;34587;48.816;9.420;2023-03-01T08:44:16;99312.59;;;13.04;32.24
48792;BME280;34587;48.816;9.420;2023-03-01T08:46:43;99312.28;;;11.65;35.24
48792;BME280;34587;48.816;9.420;2023-03-01T08:49:14;99302.13;;;13.91;30.92
48792;BME280;34587;48.816;9.420;2023-03-01T08:51:40;99311.66;;;13.08;31.92
48792;BME280;34587;48.816;9.420;2023-03-01T08:54:09;99297.97;;;13.82;31.90
48792;BME280;34587;48.816;9.420;2023-03-01T08:56:36;99320.56;;;12.47;31.86
48792;BME280;34587;48.816;9.420;2023-03-01T08:59:01;99310.53;;;11.65;33.78
48792;BME280;34587;48.816;9.420;2023-03-01T09:01:27;99300.25;;;11.61;33.83
48792;BME280;34587;48.816;9.420;2023-03-01T09:03:52;99295.06;;;11.61;34.14
48792;BME280;34587;48.816;9.420;2023-03-01T09:06:18;99291.81;;;12.56;33.53
48792;BME280;34587;48.816;9.420;2023-03-01T09:08:48;99294.34;;;10.75;35.16
48792;BME280;34587;48.816;9.420;2023-03-01T09:11:16;99295.41;;;12.50;33.65
48792;BME280;34587;48.816;9.420;2023-03-01T09:13:43;99288.00;;;11.69;34.46
48792;BME280;34587;48.816;9.420;2023-03-01T09:16:10;99276.28;;;13.01;32.92
48792;BME280;34587;48.816;9.420;2023-03-01T09:18:36;99280.06;;;12.83;31.96
48792;BME280;34587;48.816;9.420;2023-03-01T09:21:03;99275.66;;;11.86;33.61
48792;BME280;34587;48.816;9.420;2023-03-01T09:23:33;99278.78;;;12.08;33.65
48792;BME280;34587;48.816;9.420;2023-03-01T09:25:58;99264.00;;;12.63;32.29
48792;BME280;34587;48.816;9.420;2023-03-01T09:28:23;99261.59;;;12.97;32.66
48792;BME280;34587;48.816;9.420;2023-03-01T09:30:49;99271.97;;;11.39;33.05
48792;BME280;34587;48.816;9.420;2023-03-01T09:33:14;99268.09;;;13.18;31.52
48792;BME280;34587;48.816;9.420;2023-03-01T09:35:40;99260.81;;;13.75;30.92
48792;BME280;34587;48.816;9.420;2023-03-01T09:38:11;99266.00;;;12.47;32.45
48792;BME280;34587;48.816;9.420;2023-03-01T09:40:41;99277.22;;;10.61;35.58
48792;BME280;34587;48.816;9.420;2023-03-01T09:43:26;99282.72;;;10.24;35.57
48792;BME280;34587;48.816;9.420;2023-03-01T09:45:56;99272.94;;;11.32;33.78
48792;BME280;34587;48.816;9.420;2023-03-01T09:48:27;99260.72;;;12.51;33.53
48792;BME280;34587;48.816;9.420;2023-03-01T09:50:55;99269.06;;;10.00;35.39
48792;BME280;34587;48.816;9.420;2023-03-01T09:53:26;99272.06;;;9.38;36.98
48792;BME280;34587;48.816;9.420;2023-03-01T09:56:00;99245.34;;;11.90;33.60
48792;BME280;34587;48.816;9.420;2023-03-01T10:04:28;99225.41;;;12.84;32.75
48792;BME280;34587;48.816;9.420;2023-03-01T10:09:37;99213.81;;;15.40;29.16
48792;BME280;34587;48.816;9.420;2023-03-01T10:12:07;99214.03;;;15.62;27.89
48792;BME280;34587;48.816;9.420;2023-03-01T10:17:17;99227.34;;;12.75;32.13
48792;BME280;34587;48.816;9.420;2023-03-01T10:19:46;99226.59;;;11.04;35.04
48792;BME280;34587;48.816;9.420;2023-03-01T10:22:28;99219.81;;;10.94;33.98
48792;BME280;34587;48.816;9.420;2023-03-01T10:24:56;99198.38;;;13.35;31.52
48792;BME280;34587;48.816;9.420;2023-03-01T10:27:30;99207.94;;;12.48;32.14
48792;BME280;34587;48.816;9.420;2023-03-01T10:30:05;99190.72;;;12.87;32.16
48792;BME280;34587;48.816;9.420;2023-03-01T10:32:36;99201.44;;;11.70;33.69
48792;BME280;34587;48.816;9.420;2023-03-01T10:35:15;99194.44;;;12.29;32.32
48792;BME280;34587;48.816;9.420;2023-03-01T10:37:59;99192.53;;;12.39;33.15
48792;BME280;34587;48.816;9.420;2023-03-01T10:40:27;99195.53;;;13.05;31.07
48792;BME280;34587;48.816;9.420;2023-03-01T10:42:53;99186.94;;;13.78;31.30
48792;BME280;34587;48.816;9.420;2023-03-01T10:45:30;99172.50;;;16.07;27.46
48792;BME280;34587;48.816;9.420;2023-03-01T10:48:18;99185.47;;;14.03;30.61
48792;BME280;34587;48.816;9.420;2023-03-01T10:50:49;99193.50;;;12.78;31.09
48792;BME280;34587;48.816;9.420;2023-03-01T10:53:24;99164.75;;;14.31;29.70
48792;BME280;34587;48.816;9.420;2023-03-01T10:58:29;99166.41;;;14.96;28.64
48792;BME280;34587;48.816;9.420;2023-03-01T11:01:00;99165.75;;;13.93;30.24
48792;BME280;34587;48.816;9.420;2023-03-01T11:03:35;99158.75;;;14.28;30.01
48792;BME280;34587;48.816;9.420;2023-03-01T11:08:56;99168.44;;;11.78;33.08
48792;BME280;34587;48.816;9.420;2023-03-01T11:11:32;99155.88;;;12.94;31.69
48792;BME280;34587;48.816;9.420;2023-03-01T11:14:22;99142.31;;;12.80;32.81
48792;BME280;34587;48.816;9.420;2023-03-01T11:16:48;99141.94;;;13.73;30.38
48792;BME280;34587;48.816;9.420;2023-03-01T11:19:23;99130.63;;;14.06;31.10
48792;BME280;34587;48.816;9.420;2023-03-01T11:22:04;99141.22;;;13.66;30.29
48792;BME280;34587;48.816;9.420;2023-03-01T11:24:38;99123.91;;;16.50;27.39
48792;BME280;34587;48.816;9.420;2023-03-01T11:27:10;99109.03;;;17.43;26.18
48792;BME280;34587;48.816;9.420;2023-03-01T11:29:41;99117.63;;;17.03;26.61
48792;BME280;34587;48.816;9.420;2023-03-01T11:32:10;99128.44;;;14.24;29.26
48792;BME280;34587;48.816;9.420;2023-03-01T11:34:42;99121.34;;;13.63;30.82
48792;BME280;34587;48.816;9.420;2023-03-01T11:37:20;99112.63;;;13.65;30.83
48792;BME280;34587;48.816;9.420;2023-03-01T11:42:48;99106.69;;;14.57;29.58
48792;BME280;34587;48.816;9.420;2023-03-01T11:45:17;99110.34;;;15.09;28.58
48792;BME280;34587;48.816;9.420;2023-03-01T11:47:55;99107.53;;;13.24;31.17
48792;BME280;34587;48.816;9.420;2023-03-01T11:50:42;99101.09;;;14.70;29.77
48792;BME280;34587;48.816;9.420;2023-03-01T11:56:09;99094.25;;;12.57;32.59
48792;BME280;34587;48.816;9.420;2023-03-01T11:58:58;99087.78;;;13.16;32.18
48792;BME280;34587;48.816;9.420;2023-03-01T12:12:27;99048.34;;;13.67;31.80
48792;BME280;34587;48.816;9.420;2023-03-01T12:20:25;99050.81;;;12.63;32.52
48792;BME280;34587;48.816;9.420;2023-03-01T12:23:17;99029.53;;;14.50;30.75
48792;BME280;34587;48.816;9.420;2023-03-01T12:26:23;99027.56;;;13.98;30.67
48792;BME280;34587;48.816;9.420;2023-03-01T12:34:50;99042.00;;;9.27;39.21
48792;BME280;34587;48.816;9.420;2023-03-01T12:37:42;99042.75;;;9.43;38.58
48792;BME280;34587;48.816;9.420;2023-03-01T12:43:30;99017.22;;;9.05;39.87
48792;BME280;34587;48.816;9.420;2023-03-01T12:45:50;99013.16;;;8.73;40.65
48792;BME280;34587;48.816;9.420;2023-03-01T12:48:50;98996.56;;;9.05;40.20
48792;BME280;34587;48.816;9.420;2023-03-01T12:51:26;98991.06;;;9.37;40.61
48792;BME280;34587;48.816;9.420;2023-03-01T12:53:55;98989.66;;;9.04;40.26
48792;BME280;34587;48.816;9.420;2023-03-01T12:56:29;98990.78;;;8.69;40.74
48792;BME280;34587;48.816;9.420;2023-03-01T13:02:22;98975.63;;;9.27;39.62
48792;BME280;34587;48.816;9.420;2023-03-01T13:04:57;98976.38;;;9.40;39.57
48792;BME280;34587;48.816;9.420;2023-03-01T13:07:35;98969.66;;;9.24;39.97
48792;BME280;34587;48.816;9.420;2023-03-01T13:10:27;98979.72;;;8.50;41.01
48792;BME280;34587;48.816;9.420;2023-03-01T13:17:51;98960.06;;;10.11;38.47
48792;BME280;34587;48.816;9.420;2023-03-01T13:20:19;98959.28;;;10.02;38.63
48792;BME280;34587;48.816;9.420;2023-03-01T13:22:47;98962.44;;;10.27;38.80
48792;BME280;34587;48.816;9.420;2023-03-01T13:25:15;98956.81;;;9.93;39.46
48792;BME280;34587;48.816;9.420;2023-03-01T13:27:43;98956.13;;;9.79;38.88
48792;BME280;34587;48.816;9.420;2023-03-01T13:35:57;98951.66;;;9.15;39.89
48792;BME280;34587;48.816;9.420;2023-03-01T13:41:04;98934.66;;;9.71;39.29
48792;BME280;34587;48.816;9.420;2023-03-01T13:43:38;98949.31;;;8.87;40.49
48792;BME280;34587;48.816;9.420;2023-03-01T13:46:11;98960.72;;;8.56;42.14
48792;BME280;34587;48.816;9.420;2023-03-01T13:48:39;98945.91;;;8.85;41.13
48792;BME280;34587;48.816;9.420;2023-03-01T13:51:09;98952.06;;;8.66;41.68
48792;BME280;34587;48.816;9.420;2023-03-01T13:53:39;98949.66;;;8.41;42.39
48792;BME280;34587;48.816;9.420;2023-03-01T13:56:18;98944.13;;;8.87;41.63
48792;BME280;34587;48.816;9.420;2023-03-01T13:58:53;98955.28;;;8.94;41.24
48792;BME280;34587;48.816;9.420;2023-03-01T14:01:29;98941.53;;;8.92;41.25
48792;BME280;34587;48.816;9.420;2023-03-01T14:03:58;98940.94;;;8.61;42.60
48792;BME280;34587;48.816;9.420;2023-03-01T14:06:29;98929.63;;;8.69;41.91
48792;BME280;34587;48.816;9.420;2023-03-01T14:09:26;98938.41;;;8.50;42.63
48792;BME280;34587;48.816;9.420;2023-03-01T14:15:19;98935.50;;;8.88;41.82
48792;BME280;34587;48.816;9.420;2023-03-01T14:20:43;98952.97;;;8.59;41.74
48792;BME280;34587;48.816;9.420;2023-03-01T14:23:15;98943.41;;;8.70;42.12
48792;BME280;34587;48.816;9.420;2023-03-01T14:25:54;98944.22;;;8.75;42.74
48792;BME280;34587;48.816;9.420;2023-03-01T14:28:24;98947.56;;;8.89;41.93
48792;BME280;34587;48.816;9.420;2023-03-01T14:30:56;98942.28;;;9.01;42.13
48792;BME280;34587;48.816;9.420;2023-03-01T14:36:10;98948.69;;;8.55;42.65
48792;BME280;34587;48.816;9.420;2023-03-01T14:38:46;98956.19;;;8.88;42.16
48792;BME280;34587;48.816;9.420;2023-03-01T14:41:23;98956.34;;;8.71;42.21
48792;BME280;34587;48.816;9.420;2023-03-01T14:43:58;98972.88;;;8.43;42.80
48792;BME280;34587;48.816;9.420;2023-03-01T14:46:38;98970.00;;;8.84;42.27
48792;BME280;34587;48.816;9.420;2023-03-01T14:51:30;98967.97;;;9.20;41.42
48792;BME280;34587;48.816;9.420;2023-03-01T14:53:59;98959.44;;;9.12;41.78
48792;BME280;34587;48.816;9.420;2023-03-01T14:56:25;98957.72;;;9.11;42.23
48792;BME280;34587;48.816;9.420;2023-03-01T14:58:52;98963.94;;;8.88;42.30
48792;BME280;34587;48.816;9.420;2023-03-01T15:01:18;98965.91;;;8.57;42.08
48792;BME280;34587;48.816;9.420;2023-03-01T15:03:49;98964.28;;;8.41;42.48
48792;BME280;34587;48.816;9.420;2023-03-01T15:06:17;98966.91;;;8.30;42.98
48792;BME280;34587;48.816;9.420;2023-03-01T15:08:49;98958.25;;;8.40;42.88
48792;BME280;34587;48.816;9.420;2023-03-01T15:11:30;98964.38;;;8.22;43.39
48792;BME280;34587;48.816;9.420;2023-03-01T15:13:56;98960.16;;;8.08;43.21
48792;BME280;34587;48.816;9.420;2023-03-01T15:16:24;98964.41;;;8.12;43.65
48792;BME280;34587;48.816;9.420;2023-03-01T15:18:56;98963.56;;;8.10;43.25
48792;BME280;34587;48.816;9.420;2023-03-01T15:21:27;98964.41;;;8.12;43.17
48792;BME280;34587;48.816;9.420;2023-03-01T15:23:58;98957.47;;;8.21;43.34
48792;BME280;34587;48.816;9.420;2023-03-01T15:26:33;98954.19;;;7.98;43.76
48792;BME280;34587;48.816;9.420;2023-03-01T15:29:00;98967.00;;;8.12;43.85
48792;BME280;34587;48.816;9.420;2023-03-01T15:31:28;98960.16;;;8.02;44.11
48792;BME280;34587;48.816;9.420;2023-03-01T15:34:10;98967.22;;;7.57;45.20
48792;BME280;34587;48.816;9.420;2023-03-01T15:36:45;98965.50;;;7.62;45.09
48792;BME280;34587;48.816;9.420;2023-03-01T15:44:35;98955.16;;;7.62;44.76
48792;BME280;34587;48.816;9.420;2023-03-01T15:47:08;98957.75;;;7.57;45.05
48792;BME280;34587;48.816;9.420;2023-03-01T15:49:46;98946.56;;;7.63;45.64
48792;BME280;34587;48.816;9.420;2023-03-01T15:52:17;98943.19;;;7.42;45.22
48792;BME280;34587;48.816;9.420;2023-03-01T15:54:44;98943.25;;;7.19;46.02
48792;BME280;34587;48.816;9.420;2023-03-01T15:57:13;98946.63;;;7.51;45.33
48792;BME280;34587;48.816;9.420;2023-03-01T15:59:41;98944.94;;;7.40;44.99
48792;BME280;34587;48.816;9.420;2023-03-01T16:02:10;98939.78;;;7.34;44.88
48792;BME280;34587;48.816;9.420;2023-03-01T16:04:37;98937.19;;;7.34;44.96
48792;BME280;34587;48.816;9.420;2023-03-01T16:07:03;98933.81;;;7.26;45.13
48792;BME280;34587;48.816;9.420;2023-03-01T16:09:28;98929.50;;;7.22;45.47
48792;BME280;34587;48.816;9.420;2023-03-01T16:11:54;98923.50;;;7.14;45.56
48792;BME280;34587;48.816;9.420;2023-03-01T16:14:20;98936.44;;;6.92;46.21
48792;BME280;34587;48.816;9.420;2023-03-01T16:16:46;98926.09;;;7.11;45.37
48792;BME280;34587;48.816;9.420;2023-03-01T16:19:14;98933.84;;;7.02;45.75
48792;BME280;34587;48.816;9.420;2023-03-01T16:21:40;98928.69;;;6.95;45.75
48792;BME280;34587;48.816;9.420;2023-03-01T16:24:05;98932.09;;;7.01;45.23
48792;BME280;34587;48.816;9.420;2023-03-01T16:26:31;98929.56;;;6.79;46.04
48792;BME280;34587;48.816;9.420;2023-03-01T16:28:57;98933.00;;;6.60;46.24
48792;BME280;34587;48.816;9.420;2023-03-01T16:31:23;98927.84;;;6.75;46.24
48792;BME280;34587;48.816;9.420;2023-03-01T16:33:53;98933.84;;;6.79;45.74
48792;BME280;34587;48.816;9.420;2023-03-01T16:36:19;98930.41;;;6.57;46.20
48792;BME280;34587;48.816;9.420;2023-03-01T16:38:45;98933.00;;;6.44;46.81
48792;BME280;34587;48.816;9.420;2023-03-01T16:41:13;98943.28;;;6.54;46.29
48792;BME280;34587;48.816;9.420;2023-03-01T16:43:39;98947.56;;;6.61;46.35
48792;BME280;34587;48.816;9.420;2023-03-01T16:46:18;98943.25;;;6.43;46.87
48792;BME280;34587;48.816;9.420;2023-03-01T16:48:44;98946.69;;;6.19;47.39
48792;BME280;34587;48.816;9.420;2023-03-01T16:51:10;98950.91;;;6.06;47.84
48792;BME280;34587;48.816;9.420;2023-03-01T16:53:36;98963.78;;;6.05;48.08
48792;BME280;34587;48.816;9.420;2023-03-01T16:56:04;98967.09;;;5.82;48.86
48792;BME280;34587;48.816;9.420;2023-03-01T16:58:30;98956.13;;;6.25;47.03
48792;BME280;34587;48.816;9.420;2023-03-01T17:00:56;98968.91;;;6.00;48.06
48792;BME280;34587;48.816;9.420;2023-03-01T17:03:22;98971.53;;;6.17;47.75
48792;BME280;34587;48.816;9.420;2023-03-01T17:05:49;98968.03;;;6.04;47.81
48792;BME280;34587;48.816;9.420;2023-03-01T17:08:15;98981.59;;;5.68;49.06
48792;BME280;34587;48.816;9.420;2023-03-01T17:10:40;98980.56;;;5.35;49.97
48792;BME280;34587;48.816;9.420;2023-03-01T17:13:08;98987.28;;;5.15;50.63
48792;BME280;34587;48.816;9.420;2023-03-01T17:15:34;98982.00;;;4.97;51.60
48792;BME280;34587;48.816;9.420;2023-03-01T17:17:59;98990.50;;;4.89;51.80
48792;BME280;34587;48.816;9.420;2023-03-01T17:20:25;98988.69;;;4.76;52.87
48792;BME280;34587;48.816;9.420;2023-03-01T17:22:50;99005.72;;;4.68;52.68
48792;BME280;34587;48.816;9.420;2023-03-01T17:25:17;98993.72;;;4.67;53.23
48792;BME280;34587;48.816;9.420;2023-03-01T17:27:43;98997.16;;;4.66;53.08
48792;BME280;34587;48.816;9.420;2023-03-01T17:30:11;99001.34;;;4.56;53.59
48792;BME280;34587;48.816;9.420;2023-03-01T17:32:37;99006.22;;;4.30;55.03
48792;BME280;34587;48.816;9.420;2023-03-01T17:35:03;99010.41;;;4.22;55.62
48792;BME280;34587;48.816;9.420;2023-03-01T17:37:28;99003.34;;;4.06;56.77
48792;BME280;34587;48.816;9.420;2023-03-01T17:39:54;99011.75;;;3.93;56.62
48792;BME280;34587;48.816;9.420;2023-03-01T17:42:19;99015.00;;;3.79;58.07
48792;BME280;34587;48.816;9.420;2023-03-01T17:44:44;99023.44;;;3.72;58.01
48792;BME280;34587;48.816;9.420;2023-03-01T17:47:10;99027.69;;;3.69;58.82
48792;BME280;34587;48.816;9.420;2023-03-01T17:49:35;99032.66;;;3.58;58.50
48792;BME280;34587;48.816;9.420;2023-03-01T17:52:01;99018.22;;;3.65;58.43
48792;BME280;34587;48.816;9.420;2023-03-01T17:54:26;99025.59;;;3.43;60.17
48792;BME280;34587;48.816;9.420;2023-03-01T17:56:52;99014.41;;;3.37;59.70
48792;BME280;34587;48.816;9.420;2023-03-01T17:59:18;99024.66;;;3.37;59.79
48792;BME280;34587;48.816;9.420;2023-03-01T18:01:44;99020.13;;;3.19;60.50
48792;BME280;34587;48.816;9.420;2023-03-01T18:04:09;99017.38;;;3.05;60.79
48792;BME280;34587;48.816;9.420;2023-03-01T18:06:35;99013.88;;;3.00;61.18
48792;BME280;34587;48.816;9.420;2023-03-01T18:09:02;99022.09;;;2.80;62.78
48792;BME280;34587;48.816;9.420;2023-03-01T18:11:27;99021.00;;;2.68;61.76
48792;BME280;34587;48.816;9.420;2023-03-01T18:13:53;99018.34;;;2.62;62.92
48792;BME280;34587;48.816;9.420;2023-03-01T18:16:20;99016.66;;;2.62;63.53
48792;BME280;34587;48.816;9.420;2023-03-01T18:18:46;99023.25;;;2.51;63.91
48792;BME280;34587;48.816;9.420;2023-03-01T18:21:13;99016.47;;;2.53;63.00
48792;BME280;34587;48.816;9.420;2023-03-01T18:23:38;99017.25;;;2.49;62.84
48792;BME280;34587;48.816;9.420;2023-03-01T18:26:07;99018.13;;;2.51;62.95
48792;BME280;34587;48.816;9.420;2023-03-01T18:28:33;99022.34;;;2.47;63.17
48792;BME280;34587;48.816;9.420;2023-03-01T18:31:00;99021.34;;;2.41;63.45
48792;BME280;34587;48.816;9.420;2023-03-01T18:33:28;99027.22;;;2.35;63.90
48792;BME280;34587;48.816;9.420;2023-03-01T18:35:53;99033.03;;;2.26;64.12
48792;BME280;34587;48.816;9.420;2023-03-01T18:38:18;99032.72;;;2.11;64.92
48792;BME280;34587;48.816;9.420;2023-03-01T18:40:44;99034.41;;;2.09;64.74
48792;BME280;34587;48.816;9.420;2023-03-01T18:43:10;99035.31;;;2.13;64.65
48792;BME280;34587;48.816;9.420;2023-03-01T18:45:35;99040.25;;;2.03;65.55
48792;BME280;34587;48.816;9.420;2023-03-01T18:48:02;99035.09;;;2.02;65.98
48792;BME280;34587;48.816;9.420;2023-03-01T18:50:27;99020.88;;;2.13;65.57